Reklama

Seznam meteostanic a jejich METAR

Vyhledat místa podle abecedy:
A B C D E F G H I J K L M N O P Q R S T U V W X Y Z

Filtrovat:

ID stanice:
a/nebo
Název místa (fulltext):
 
Místo (ID)Naposledy načteno 
Verona (LIPX) 15.11.2018 11:50 UTC Zobrazit METAR
LIPX 151150Z VRB01KT 9999 BKN040 14/09 Q1026
Vienna (LOWW) 15.11.2018 11:50 UTC Zobrazit METAR
LOWW 151150Z VRB02KT 9999 FEW024 10/04 Q1029 NOSIG
Vientiane (VLVT) 15.11.2018 12:00 UTC Zobrazit METAR
VLVT 151200Z 32002KT 5000 BR FEW040 28/24 Q1010 NOSIG
Vieuxfort (TLPL) 15.11.2018 12:00 UTC Zobrazit METAR
TLPL 151200Z 12012KT 9999 -SHRA SCT020 BKN038 27/25 Q1014 TEMPO SHRA
Vilnius (EYVI) 15.11.2018 11:50 UTC Zobrazit METAR
EYVI 151150Z 04006KT 360V070 9999 SCT012 BKN040 06/04 Q1032 R01/2///95 NOSIG
Vitebsk (UMII) Zatím nenačteno  
Volgograd (URWW) Zatím nenačteno  
Voronezh (UUOO) Zatím nenačteno  
Wake Island (PWAK) 15.11.2018 11:58 UTC Zobrazit METAR
PWAK 151158Z AUTO 10006KT 9999 FEW019 27/24 A2996 RMK AO2 SLPNO
Warsaw (EPWA) 15.11.2018 12:00 UTC Zobrazit METAR
EPWA 151200Z 03008KT 360V080 9999 SCT020 10/06 Q1031 NOSIG
Washington (KIAD) 15.11.2018 11:52 UTC Zobrazit METAR
KIAD 151152Z 09005KT 2SM -SN BKN020 OVC035 00/M03 A3046 RMK AO2 SNB27PLE31 SLP317 P0003 60005 70005 T00001028 10028 20000 56014
Wellington (NZWN) 15.11.2018 11:00 UTC Zobrazit METAR
NZWN 151100Z AUTO 36018KT 9999 FEW017/// 16/13 Q1022 NOSIG
Windhoek (FYWH) 15.11.2018 12:00 UTC Zobrazit METAR
FYWH 151200Z 12007KT CAVOK 33/M04 Q1022 NOSIG
Wroclaw (EPWR) 15.11.2018 12:00 UTC Zobrazit METAR
EPWR 151200Z 12006KT 8000 BKN005 07/06 Q1032
Yamoussoukro (DIYO) 15.11.2018 12:00 UTC Zobrazit METAR
DIYO 151200Z 22006KT 9999 BKN013 29/23 Q1011 NOSIG
Yangon (VYYY) 15.11.2018 12:00 UTC Zobrazit METAR
VYYY 151200Z 27002KT 7000 NSC 31/25 Q1010
Yaounde (FKYS) 15.11.2018 12:00 UTC Zobrazit METAR
FKYS 151200Z /////KT 8000 BKN020 30/22 Q1013 NOSIG
Yerevan (UGEE) Zatím nenačteno  
Zadar (LDZD) 15.11.2018 12:00 UTC Zobrazit METAR
LDZD 151200Z VRB04KT CAVOK 18/03 Q1023 BECMG 06012KT
Zagreb (LDZA) 15.11.2018 12:00 UTC Zobrazit METAR
LDZA 151200Z 09003KT 030V150 CAVOK 12/04 Q1028 NOSIG
Zaragoza (LEZG) 15.11.2018 12:00 UTC Zobrazit METAR
LEZG 151200Z 10003KT 060V120 8000 FEW015 SCT020 16/13 Q1020
Zhezkazgan (UAKD) Zatím nenačteno  
Zurich (LSZH) 15.11.2018 11:50 UTC Zobrazit METAR
LSZH 151150Z VRB03KT 8000 OVC008 07/05 Q1026 NOSIG
Předchozí 1 ... 7 8 9
Reklama

Počasí na Váš email

Emaily jsou bez reklamy a bez spamu



Odhlásit newsletter

Reklama


Lunární kalendář

  • 23.11.
  • 30.11.
  • 07.12.
  • 15.12.



Reklama


Reklama
Povinné ručení
Reklama



Reklama